Time;durP1;ratioP1;P1;durP2;ratioP2;P2;SDS_P1;SDS_P2;PMS_P1;PMS_P2;Temp;Humidity;BMP_temperature;BMP_pressure;BME280_temperature;BME280_humidity;BME280_pressure;Samples;Min_cycle;Max_cycle;Signal;HPM_P1;HPM_P2
2021/11/15 00:00:14;;;;;;;63.10;21.38;;;;;;;;;;5055424;28;20139;-55
2021/11/15 00:02:41;;;;;;;62.53;22.10;;;;;;;;;;5049333;28;20456;-57
2021/11/15 00:05:08;;;;;;;58.88;20.42;;;;;;;;;;5053278;28;20052;-56
2021/11/15 00:07:34;;;;;;;56.33;21.38;;;;;;;;;;5045023;28;20560;-56
2021/11/15 00:10:00;;;;;;;60.20;22.25;;;;;;;;;;5050448;28;20078;-56
2021/11/15 00:12:26;;;;;;;55.78;19.35;;;;;;;;;;5052172;28;20548;-56
2021/11/15 00:14:52;;;;;;;58.75;22.40;;;;;;;;;;5064896;28;20115;-55
2021/11/15 00:17:18;;;;;;;56.25;21.27;;;;;;;;;;5051642;28;20021;-55
2021/11/15 00:19:44;;;;;;;55.25;21.20;;;;;;;;;;5053918;28;20040;-54
2021/11/15 00:22:10;;;;;;;60.40;21.83;;;;;;;;;;5043997;28;20032;-53
2021/11/15 00:24:36;;;;;;;59.30;20.77;;;;;;;;;;5043743;28;20345;-53
2021/11/15 00:27:03;;;;;;;57.75;20.58;;;;;;;;;;5045967;28;20028;-54
2021/11/15 00:29:29;;;;;;;56.17;20.30;;;;;;;;;;5047463;28;20361;-55
2021/11/15 00:31:55;;;;;;;55.78;20.80;;;;;;;;;;5049778;28;20049;-51
2021/11/15 00:34:21;;;;;;;52.00;20.52;;;;;;;;;;5052048;28;20453;-52
2021/11/15 00:36:47;;;;;;;59.83;21.17;;;;;;;;;;5045908;28;20461;-55
2021/11/15 00:39:13;;;;;;;57.03;20.40;;;;;;;;;;5047906;28;20037;-52
2021/11/15 00:41:39;;;;;;;55.15;20.52;;;;;;;;;;5042644;28;20342;-53
2021/11/15 00:44:06;;;;;;;59.78;20.73;;;;;;;;;;5052019;28;20025;-52
2021/11/15 00:46:32;;;;;;;50.78;20.20;;;;;;;;;;5069328;28;20946;-53
2021/11/15 00:48:57;;;;;;;55.45;20.17;;;;;;;;;;5063990;28;20169;-53
2021/11/15 00:51:24;;;;;;;58.95;21.00;;;;;;;;;;5063914;28;20040;-54
2021/11/15 00:53:50;;;;;;;48.47;19.75;;;;;;;;;;5063672;28;20044;-53
2021/11/15 00:56:16;;;;;;;59.28;21.13;;;;;;;;;;5061082;28;20029;-52
2021/11/15 00:58:43;;;;;;;46.78;20.02;;;;;;;;;;5057305;28;20082;-56
2021/11/15 01:01:09;;;;;;;54.15;20.10;;;;;;;;;;5051917;28;20032;-58
2021/11/15 01:03:35;;;;;;;51.05;20.23;;;;;;;;;;5052351;28;20760;-57
2021/11/15 01:06:01;;;;;;;54.47;20.40;;;;;;;;;;5052319;28;20781;-56
2021/11/15 01:08:27;;;;;;;50.70;20.38;;;;;;;;;;5052421;28;20112;-57
2021/11/15 01:10:53;;;;;;;51.38;19.70;;;;;;;;;;5053654;28;20025;-57
2021/11/15 01:13:20;;;;;;;53.58;20.48;;;;;;;;;;5047765;28;20041;-58
2021/11/15 01:15:46;;;;;;;53.80;19.80;;;;;;;;;;5049541;28;20043;-54
2021/11/15 01:18:12;;;;;;;51.67;20.25;;;;;;;;;;5046966;28;20025;-56
2021/11/15 01:20:38;;;;;;;48.58;18.13;;;;;;;;;;5053608;28;20104;-51
2021/11/15 01:23:05;;;;;;;52.95;19.55;;;;;;;;;;5046144;28;20111;-56
2021/11/15 01:25:31;;;;;;;44.28;17.95;;;;;;;;;;5047415;28;20029;-56
2021/11/15 01:27:57;;;;;;;51.85;19.95;;;;;;;;;;5044910;28;20029;-53
2021/11/15 01:30:24;;;;;;;49.95;19.20;;;;;;;;;;5048038;28;20550;-53
2021/11/15 01:32:50;;;;;;;50.90;19.35;;;;;;;;;;5045292;28;20123;-54
2021/11/15 01:35:16;;;;;;;58.42;20.42;;;;;;;;;;5047966;28;20028;-54
2021/11/15 01:37:43;;;;;;;49.83;18.60;;;;;;;;;;5046244;28;20392;-53
2021/11/15 01:40:11;;;;;;;52.15;20.00;;;;;;;;;;5049726;28;20198;-52
2021/11/15 01:42:37;;;;;;;51.38;20.67;;;;;;;;;;5044462;28;20032;-51
2021/11/15 01:45:04;;;;;;;46.63;17.52;;;;;;;;;;5054275;28;20556;-54
2021/11/15 01:47:30;;;;;;;47.92;19.33;;;;;;;;;;5052016;28;20381;-56
2021/11/15 01:49:56;;;;;;;54.40;20.45;;;;;;;;;;5051369;28;20029;-53
2021/11/15 01:52:22;;;;;;;45.50;18.02;;;;;;;;;;5051056;28;20037;-52
2021/11/15 01:54:49;;;;;;;57.72;20.42;;;;;;;;;;5050702;28;20029;-52
2021/11/15 01:57:15;;;;;;;55.80;20.85;;;;;;;;;;5046795;28;20039;-56
2021/11/15 01:59:41;;;;;;;56.42;19.13;;;;;;;;;;5047151;28;20033;-57
2021/11/15 02:02:07;;;;;;;53.85;19.77;;;;;;;;;;5052536;28;20044;-57
2021/11/15 02:04:33;;;;;;;51.53;20.42;;;;;;;;;;5049854;28;20022;-57
2021/11/15 02:06:59;;;;;;;58.40;22.00;;;;;;;;;;5043684;28;20033;-58
2021/11/15 02:09:27;;;;;;;58.00;20.38;;;;;;;;;;5050764;28;20095;-54
2021/11/15 02:11:53;;;;;;;52.17;19.88;;;;;;;;;;5055149;28;20112;-56
2021/11/15 02:14:19;;;;;;;53.92;21.40;;;;;;;;;;5050248;28;20116;-52
2021/11/15 02:16:45;;;;;;;51.58;19.17;;;;;;;;;;5055866;28;20112;-54
2021/11/15 02:19:11;;;;;;;52.55;20.33;;;;;;;;;;5049780;28;20017;-57
2021/11/15 02:21:37;;;;;;;57.63;21.00;;;;;;;;;;5051791;28;20492;-53
2021/11/15 02:24:04;;;;;;;52.90;19.80;;;;;;;;;;5049099;28;20025;-55
2021/11/15 02:26:30;;;;;;;54.38;20.02;;;;;;;;;;5051045;28;20124;-52
2021/11/15 02:28:56;;;;;;;53.88;20.48;;;;;;;;;;5047618;28;20108;-56
2021/11/15 02:31:26;;;;;;;56.92;20.40;;;;;;;;;;5053856;28;20025;-51
2021/11/15 02:33:53;;;;;;;59.72;22.50;;;;;;;;;;5042679;28;20442;-55
2021/11/15 02:36:20;;;;;;;53.05;20.20;;;;;;;;;;5054943;28;20067;-55
2021/11/15 02:38:48;;;;;;;48.75;19.83;;;;;;;;;;5053841;28;20029;-54
2021/11/15 02:41:14;;;;;;;53.30;20.52;;;;;;;;;;5055127;28;20041;-55
2021/11/15 02:43:40;;;;;;;52.05;19.70;;;;;;;;;;5055200;28;20025;-56
2021/11/15 02:46:06;;;;;;;54.90;22.40;;;;;;;;;;5053992;28;20113;-52
2021/11/15 02:48:32;;;;;;;49.97;19.08;;;;;;;;;;5050522;28;20091;-51
2021/11/15 02:50:58;;;;;;;56.45;20.65;;;;;;;;;;5052667;28;20025;-52
2021/11/15 02:53:24;;;;;;;54.42;20.05;;;;;;;;;;5053542;28;20132;-54
2021/11/15 02:55:51;;;;;;;54.30;20.13;;;;;;;;;;5045847;28;20025;-54
2021/11/15 02:58:17;;;;;;;51.03;19.45;;;;;;;;;;5050619;28;20107;-57
2021/11/15 03:00:45;;;;;;;46.72;18.45;;;;;;;;;;5052259;28;20108;-57
2021/11/15 03:03:12;;;;;;;52.30;21.80;;;;;;;;;;5055191;28;20412;-58
2021/11/15 03:05:39;;;;;;;50.30;18.90;;;;;;;;;;5055230;28;20105;-57
2021/11/15 03:08:06;;;;;;;51.25;19.55;;;;;;;;;;5053240;28;20021;-58
2021/11/15 03:10:33;;;;;;;50.70;20.23;;;;;;;;;;5054581;28;20037;-56
2021/11/15 03:13:00;;;;;;;53.22;19.27;;;;;;;;;;5052447;28;20099;-56
2021/11/15 03:15:27;;;;;;;50.95;20.75;;;;;;;;;;5052174;28;20049;-57
2021/11/15 03:18:07;;;;;;;49.88;19.70;;;;;;;;;;5046543;28;20021;-57
2021/11/15 03:20:34;;;;;;;57.10;19.33;;;;;;;;;;5048367;28;20167;-57
2021/11/15 03:23:01;;;;;;;53.28;18.95;;;;;;;;;;5053805;28;20031;-56
2021/11/15 03:25:28;;;;;;;52.75;20.05;;;;;;;;;;5052019;28;20032;-55
2021/11/15 03:27:54;;;;;;;49.95;18.90;;;;;;;;;;5056484;28;20021;-55
2021/11/15 03:30:20;;;;;;;53.70;21.60;;;;;;;;;;5053255;28;20025;-56
2021/11/15 03:32:47;;;;;;;49.88;19.13;;;;;;;;;;5049744;28;20041;-53
2021/11/15 03:35:14;;;;;;;44.92;17.13;;;;;;;;;;5049466;28;20036;-53
2021/11/15 03:37:40;;;;;;;48.97;18.90;;;;;;;;;;5053720;28;20040;-56
2021/11/15 03:40:08;;;;;;;49.92;17.95;;;;;;;;;;5045595;28;20033;-54
2021/11/15 03:42:35;;;;;;;50.83;19.20;;;;;;;;;;5047900;28;20028;-52
2021/11/15 03:45:01;;;;;;;45.28;16.70;;;;;;;;;;5053675;28;20116;-55
2021/11/15 03:47:27;;;;;;;49.78;16.88;;;;;;;;;;5048345;28;20442;-52
2021/11/15 03:49:53;;;;;;;44.13;18.33;;;;;;;;;;5049065;28;20033;-52
2021/11/15 03:52:19;;;;;;;51.92;20.13;;;;;;;;;;5052021;28;20055;-53
2021/11/15 03:54:45;;;;;;;53.22;20.00;;;;;;;;;;5045708;28;20117;-54
2021/11/15 03:57:11;;;;;;;51.33;19.77;;;;;;;;;;5047639;28;20039;-52
2021/11/15 03:59:37;;;;;;;49.72;19.48;;;;;;;;;;5049547;28;20544;-56
2021/11/15 04:02:03;;;;;;;51.95;19.02;;;;;;;;;;5047621;28;20029;-55
2021/11/15 04:04:38;;;;;;;51.20;19.10;;;;;;;;;;5052323;28;20081;-56
2021/11/15 04:07:05;;;;;;;52.28;18.35;;;;;;;;;;5050891;28;20086;-55
2021/11/15 04:09:31;;;;;;;56.70;20.75;;;;;;;;;;5051268;28;20032;-55
2021/11/15 04:11:57;;;;;;;52.67;19.85;;;;;;;;;;5045736;28;20033;-57
2021/11/15 04:14:23;;;;;;;52.47;20.65;;;;;;;;;;5045693;28;20112;-58
2021/11/15 04:16:49;;;;;;;51.28;19.27;;;;;;;;;;5047574;28;20029;-55
2021/11/15 04:19:18;;;;;;;48.63;18.85;;;;;;;;;;5045941;28;20036;-57
2021/11/15 04:21:44;;;;;;;53.00;20.35;;;;;;;;;;5044323;28;20029;-56
2021/11/15 04:24:10;;;;;;;46.63;18.38;;;;;;;;;;5044185;28;20029;-53
2021/11/15 04:26:36;;;;;;;43.75;19.20;;;;;;;;;;5047852;28;20440;-57
2021/11/15 04:29:03;;;;;;;43.45;19.17;;;;;;;;;;5050335;28;20037;-55
2021/11/15 04:31:29;;;;;;;49.63;20.17;;;;;;;;;;5050087;28;20148;-56
2021/11/15 04:33:55;;;;;;;48.15;19.30;;;;;;;;;;5050126;28;20448;-52
2021/11/15 04:36:21;;;;;;;46.75;18.20;;;;;;;;;;5051491;28;20025;-54
2021/11/15 04:38:47;;;;;;;50.67;20.17;;;;;;;;;;5047715;28;20811;-53
2021/11/15 04:41:13;;;;;;;49.28;19.33;;;;;;;;;;5049790;28;20017;-53
2021/11/15 04:43:39;;;;;;;51.10;20.65;;;;;;;;;;5047755;28;20048;-51
2021/11/15 04:46:05;;;;;;;58.22;20.88;;;;;;;;;;5044115;28;20110;-53
2021/11/15 04:48:31;;;;;;;53.65;20.13;;;;;;;;;;5047479;28;20381;-51
2021/11/15 04:50:57;;;;;;;47.40;19.92;;;;;;;;;;5048230;28;20473;-55
2021/11/15 04:53:24;;;;;;;48.92;20.02;;;;;;;;;;5050563;28;20127;-54
2021/11/15 04:55:50;;;;;;;57.53;22.58;;;;;;;;;;5046907;28;20037;-52
2021/11/15 04:58:16;;;;;;;55.00;23.00;;;;;;;;;;5047085;28;20040;-55
2021/11/15 05:00:42;;;;;;;53.83;20.98;;;;;;;;;;5047401;28;20112;-54
2021/11/15 05:03:08;;;;;;;51.65;20.25;;;;;;;;;;5045219;28;20032;-52
2021/11/15 05:05:34;;;;;;;57.30;21.65;;;;;;;;;;5048695;28;20028;-54
2021/11/15 05:08:01;;;;;;;53.88;21.08;;;;;;;;;;5050377;28;20386;-57
2021/11/15 05:10:28;;;;;;;57.50;20.45;;;;;;;;;;5046083;28;20025;-57
2021/11/15 05:12:55;;;;;;;56.30;22.20;;;;;;;;;;5050365;28;20411;-55
2021/11/15 05:15:21;;;;;;;55.25;22.70;;;;;;;;;;5045682;28;20163;-53
2021/11/15 05:17:48;;;;;;;65.05;22.33;;;;;;;;;;5045811;28;20040;-54
2021/11/15 05:20:15;;;;;;;55.85;22.88;;;;;;;;;;5044396;28;20183;-56
2021/11/15 05:22:41;;;;;;;57.75;23.85;;;;;;;;;;5053360;28;20029;-54
2021/11/15 05:25:08;;;;;;;58.35;22.63;;;;;;;;;;5052353;28;20021;-55
2021/11/15 05:27:34;;;;;;;53.65;21.15;;;;;;;;;;5060575;28;20486;-55
2021/11/15 05:30:00;;;;;;;58.63;21.88;;;;;;;;;;5052155;28;20057;-55
2021/11/15 05:32:26;;;;;;;67.85;23.50;;;;;;;;;;5054100;28;20076;-54
2021/11/15 05:34:52;;;;;;;53.33;20.40;;;;;;;;;;5050354;28;20037;-53
2021/11/15 05:37:19;;;;;;;55.70;21.58;;;;;;;;;;5053103;28;20029;-53
2021/11/15 05:39:45;;;;;;;67.30;22.75;;;;;;;;;;5054041;28;20483;-55
2021/11/15 05:42:11;;;;;;;53.83;21.08;;;;;;;;;;5054734;28;20740;-52
2021/11/15 05:44:37;;;;;;;68.32;23.38;;;;;;;;;;5048502;28;20092;-54
2021/11/15 05:47:03;;;;;;;63.35;22.52;;;;;;;;;;5050012;28;20049;-52
2021/11/15 05:49:29;;;;;;;54.97;21.45;;;;;;;;;;5048770;28;20033;-52
2021/11/15 05:51:55;;;;;;;55.40;22.65;;;;;;;;;;5050895;28;20094;-51
2021/11/15 05:54:21;;;;;;;62.78;23.00;;;;;;;;;;5052492;28;20029;-54
2021/11/15 05:56:47;;;;;;;64.85;23.88;;;;;;;;;;5043649;28;20452;-54
2021/11/15 05:59:14;;;;;;;63.83;23.90;;;;;;;;;;5050943;28;20516;-54
2021/11/15 06:01:40;;;;;;;61.25;22.38;;;;;;;;;;5053314;28;20111;-53
2021/11/15 06:04:06;;;;;;;57.50;21.42;;;;;;;;;;5052119;28;20025;-51
2021/11/15 06:06:33;;;;;;;55.35;23.35;;;;;;;;;;5052149;28;20039;-57
2021/11/15 06:08:59;;;;;;;54.45;21.83;;;;;;;;;;5051980;28;20403;-56
2021/11/15 06:11:25;;;;;;;59.85;22.35;;;;;;;;;;5049457;28;20111;-56
2021/11/15 06:13:51;;;;;;;63.08;23.45;;;;;;;;;;5031696;28;20040;-56
2021/11/15 06:16:17;;;;;;;62.72;23.13;;;;;;;;;;5049340;28;20115;-53
2021/11/15 06:18:44;;;;;;;58.40;21.55;;;;;;;;;;5043338;28;20446;-56
2021/11/15 06:21:10;;;;;;;62.22;22.35;;;;;;;;;;5050196;28;20421;-56
2021/11/15 06:23:36;;;;;;;56.35;21.58;;;;;;;;;;5053574;28;20048;-56
2021/11/15 06:26:02;;;;;;;56.50;20.70;;;;;;;;;;5053913;28;20071;-55
2021/11/15 06:28:28;;;;;;;56.65;22.25;;;;;;;;;;5054628;28;20037;-56
2021/11/15 06:30:54;;;;;;;56.42;22.83;;;;;;;;;;5054419;28;20055;-56
2021/11/15 06:33:20;;;;;;;56.17;23.48;;;;;;;;;;5054603;28;20483;-52
2021/11/15 06:35:47;;;;;;;56.95;21.13;;;;;;;;;;5054152;28;20037;-53
2021/11/15 06:38:13;;;;;;;60.03;22.38;;;;;;;;;;5052415;28;20100;-53
2021/11/15 06:40:40;;;;;;;54.30;21.48;;;;;;;;;;5053920;28;20516;-53
2021/11/15 06:43:06;;;;;;;61.38;22.48;;;;;;;;;;5053842;28;20025;-52
2021/11/15 06:45:33;;;;;;;60.95;23.17;;;;;;;;;;5053831;28;20067;-53
2021/11/15 06:47:59;;;;;;;60.20;22.77;;;;;;;;;;5051743;28;20021;-54
2021/11/15 06:50:26;;;;;;;60.10;22.33;;;;;;;;;;5050260;28;20104;-53
2021/11/15 06:52:52;;;;;;;62.85;23.67;;;;;;;;;;5052690;28;20017;-53
2021/11/15 06:55:20;;;;;;;58.80;22.48;;;;;;;;;;5031949;28;20025;-54
2021/11/15 06:57:46;;;;;;;55.08;22.55;;;;;;;;;;5052772;28;20075;-56
2021/11/15 07:00:16;;;;;;;56.47;22.13;;;;;;;;;;5052422;28;20036;-53
2021/11/15 07:02:42;;;;;;;60.75;22.45;;;;;;;;;;5052811;28;20033;-53
2021/11/15 07:05:11;;;;;;;56.28;21.95;;;;;;;;;;5052295;28;20469;-51
2021/11/15 07:07:37;;;;;;;58.38;21.42;;;;;;;;;;5049965;28;20033;-52
2021/11/15 07:10:04;;;;;;;58.75;21.63;;;;;;;;;;5053029;28;20037;-55
2021/11/15 07:12:30;;;;;;;55.65;21.08;;;;;;;;;;5050763;28;20376;-54
2021/11/15 07:14:56;;;;;;;60.58;23.88;;;;;;;;;;5052245;28;20033;-54
2021/11/15 07:17:22;;;;;;;59.15;22.63;;;;;;;;;;5045535;28;20449;-56
2021/11/15 07:19:48;;;;;;;62.20;23.50;;;;;;;;;;5045812;28;20040;-54
2021/11/15 07:22:14;;;;;;;60.88;21.92;;;;;;;;;;5047293;28;20044;-54
2021/11/15 07:24:40;;;;;;;59.45;22.52;;;;;;;;;;5052225;28;20500;-57
2021/11/15 07:27:06;;;;;;;57.38;23.00;;;;;;;;;;5043905;28;20029;-54
2021/11/15 07:29:32;;;;;;;54.42;21.40;;;;;;;;;;5045596;28;20036;-56
2021/11/15 07:32:00;;;;;;;56.13;22.77;;;;;;;;;;5039340;28;20052;-57
2021/11/15 07:34:27;;;;;;;59.30;22.70;;;;;;;;;;5049857;28;20025;-55
2021/11/15 07:36:53;;;;;;;59.47;21.38;;;;;;;;;;5047088;28;20483;-55
2021/11/15 07:39:19;;;;;;;50.47;20.70;;;;;;;;;;5049210;28;20032;-54
2021/11/15 07:41:45;;;;;;;53.35;22.00;;;;;;;;;;5051162;28;20108;-54
2021/11/15 07:44:11;;;;;;;48.53;20.25;;;;;;;;;;5050755;28;20025;-54
2021/11/15 07:46:37;;;;;;;58.58;22.48;;;;;;;;;;5048650;28;20120;-55
2021/11/15 07:49:03;;;;;;;55.85;20.85;;;;;;;;;;5047475;28;20031;-53
2021/11/15 07:51:29;;;;;;;51.55;20.15;;;;;;;;;;5047567;28;20078;-54
2021/11/15 07:53:56;;;;;;;58.83;19.13;;;;;;;;;;5042124;28;20111;-56
2021/11/15 07:56:22;;;;;;;53.75;19.70;;;;;;;;;;5050265;28;20037;-53
2021/11/15 07:58:48;;;;;;;62.15;20.45;;;;;;;;;;5045134;28;20032;-54
2021/11/15 08:01:14;;;;;;;49.65;19.40;;;;;;;;;;5048426;28;20470;-53
2021/11/15 08:03:41;;;;;;;51.38;20.33;;;;;;;;;;5049238;28;20032;-55
2021/11/15 08:06:10;;;;;;;55.65;20.17;;;;;;;;;;5051279;28;20081;-53
2021/11/15 08:08:36;;;;;;;56.92;22.08;;;;;;;;;;5042680;28;20407;-53
2021/11/15 08:11:02;;;;;;;54.45;20.23;;;;;;;;;;5052523;28;20116;-54
2021/11/15 08:13:28;;;;;;;51.22;19.70;;;;;;;;;;5050724;28;20067;-58
2021/11/15 08:15:54;;;;;;;52.40;18.55;;;;;;;;;;5050000;28;20457;-57
2021/11/15 08:18:20;;;;;;;44.53;20.10;;;;;;;;;;5049127;28;20078;-55
2021/11/15 08:20:46;;;;;;;48.55;18.48;;;;;;;;;;5050839;28;20028;-55
2021/11/15 08:23:14;;;;;;;45.67;19.38;;;;;;;;;;5050326;28;20028;-58
2021/11/15 08:25:57;;;;;;;46.47;18.05;;;;;;;;;;5051433;28;20448;-56
2021/11/15 08:28:27;;;;;;;38.17;15.95;;;;;;;;;;5043245;28;20472;-56
2021/11/15 08:30:54;;;;;;;47.05;16.88;;;;;;;;;;5050421;28;20090;-57
2021/11/15 08:33:20;;;;;;;50.90;18.17;;;;;;;;;;5050279;28;20417;-55
2021/11/15 08:35:48;;;;;;;47.97;17.90;;;;;;;;;;5050935;28;20068;-57
2021/11/15 08:38:30;;;;;;;45.40;16.35;;;;;;;;;;5050409;28;20121;-54
2021/11/15 08:40:57;;;;;;;47.95;17.15;;;;;;;;;;5047530;28;20051;-53
2021/11/15 08:43:23;;;;;;;48.67;17.15;;;;;;;;;;5051173;28;20017;-53
2021/11/15 08:45:50;;;;;;;42.67;15.93;;;;;;;;;;5051282;28;20083;-53
2021/11/15 08:48:16;;;;;;;43.50;16.02;;;;;;;;;;5046720;28;20423;-56
2021/11/15 08:50:42;;;;;;;39.13;15.60;;;;;;;;;;5050183;28;20108;-56
2021/11/15 08:53:09;;;;;;;39.08;16.17;;;;;;;;;;5049046;28;20071;-56
2021/11/15 08:55:35;;;;;;;44.08;16.42;;;;;;;;;;5050246;28;20541;-57
2021/11/15 08:58:02;;;;;;;44.67;15.15;;;;;;;;;;5049659;28;20029;-53
2021/11/15 09:00:28;;;;;;;42.33;15.60;;;;;;;;;;5051471;28;20392;-53
2021/11/15 09:02:55;;;;;;;37.97;14.98;;;;;;;;;;5045803;28;20041;-57
2021/11/15 09:05:21;;;;;;;44.92;15.77;;;;;;;;;;5049187;28;20056;-53
2021/11/15 09:07:47;;;;;;;38.35;14.75;;;;;;;;;;5048639;28;20445;-56
2021/11/15 09:10:14;;;;;;;41.00;15.27;;;;;;;;;;5044761;28;20416;-52
2021/11/15 09:12:40;;;;;;;37.97;13.95;;;;;;;;;;5050928;28;20040;-52
2021/11/15 09:15:08;;;;;;;41.78;14.98;;;;;;;;;;5051014;28;20553;-54
2021/11/15 09:17:34;;;;;;;41.28;14.13;;;;;;;;;;5049601;28;20041;-55
2021/11/15 09:20:02;;;;;;;45.00;14.77;;;;;;;;;;5045767;28;20078;-52
2021/11/15 09:22:28;;;;;;;41.67;14.43;;;;;;;;;;5035128;28;20445;-53
2021/11/15 09:24:54;;;;;;;38.42;14.32;;;;;;;;;;5037732;28;20040;-57
2021/11/15 09:27:20;;;;;;;35.97;12.88;;;;;;;;;;5043828;28;20100;-55
2021/11/15 09:29:48;;;;;;;36.55;14.07;;;;;;;;;;5048231;28;20457;-55
2021/11/15 09:32:14;;;;;;;34.25;12.85;;;;;;;;;;5050488;28;20079;-57
2021/11/15 09:34:41;;;;;;;37.75;13.25;;;;;;;;;;5051377;28;20108;-54
2021/11/15 09:37:08;;;;;;;38.60;13.93;;;;;;;;;;5046876;28;20032;-57
2021/11/15 09:39:34;;;;;;;34.80;13.20;;;;;;;;;;5049125;28;20052;-54
2021/11/15 09:42:04;;;;;;;37.20;13.43;;;;;;;;;;5051177;28;20056;-54
2021/11/15 09:44:30;;;;;;;35.42;13.50;;;;;;;;;;5047324;28;20029;-55
2021/11/15 09:46:56;;;;;;;37.28;13.63;;;;;;;;;;5046875;28;20035;-57
2021/11/15 09:49:22;;;;;;;36.90;13.70;;;;;;;;;;5046662;28;20386;-56
2021/11/15 09:51:48;;;;;;;38.30;14.68;;;;;;;;;;5047381;28;20063;-55
2021/11/15 09:54:15;;;;;;;39.28;13.85;;;;;;;;;;5045145;28;20091;-54
2021/11/15 09:56:42;;;;;;;39.38;13.77;;;;;;;;;;5048796;28;20031;-56
2021/11/15 09:59:11;;;;;;;43.95;13.90;;;;;;;;;;5043531;28;20025;-53
2021/11/15 10:01:38;;;;;;;42.67;15.40;;;;;;;;;;5041853;28;20431;-55
2021/11/15 10:04:04;;;;;;;38.75;14.13;;;;;;;;;;5035356;28;20029;-54
2021/11/15 10:06:30;;;;;;;36.20;13.55;;;;;;;;;;5040881;28;20533;-55
2021/11/15 10:08:57;;;;;;;36.92;14.73;;;;;;;;;;5046632;28;20111;-58
2021/11/15 10:11:24;;;;;;;42.17;14.35;;;;;;;;;;5047989;28;20029;-55
2021/11/15 10:13:51;;;;;;;34.65;14.00;;;;;;;;;;5046203;28;20028;-55
2021/11/15 10:16:21;;;;;;;42.72;15.10;;;;;;;;;;5050523;28;20116;-52
2021/11/15 10:18:54;;;;;;;39.55;15.07;;;;;;;;;;5038696;28;20096;-55
2021/11/15 10:21:26;;;;;;;41.67;14.48;;;;;;;;;;5045492;28;20037;-54
2021/11/15 10:23:52;;;;;;;38.67;14.77;;;;;;;;;;5051990;28;20025;-55
2021/11/15 10:26:40;;;;;;;39.00;15.70;;;;;;;;;;5051704;28;20077;-56
2021/11/15 10:29:11;;;;;;;38.00;15.27;;;;;;;;;;5042662;28;20029;-55
2021/11/15 10:31:39;;;;;;;38.33;15.00;;;;;;;;;;5054064;28;20072;-54
2021/11/15 10:34:06;;;;;;;42.55;15.00;;;;;;;;;;5053255;28;20059;-53
2021/11/15 10:36:43;;;;;;;42.95;15.35;;;;;;;;;;5053484;28;20099;-52
2021/11/15 10:39:09;;;;;;;40.10;14.27;;;;;;;;;;5042165;28;20021;-57
2021/11/15 10:41:35;;;;;;;40.63;15.48;;;;;;;;;;5050107;28;20090;-54
2021/11/15 10:44:05;;;;;;;38.00;14.77;;;;;;;;;;5045598;28;20025;-58
2021/11/15 10:46:38;;;;;;;38.00;14.65;;;;;;;;;;5048430;28;20499;-55
2021/11/15 10:49:05;;;;;;;39.67;15.10;;;;;;;;;;5046217;28;20029;-55
2021/11/15 10:51:53;;;;;;;43.45;14.80;;;;;;;;;;5044497;28;20358;-52
2021/11/15 10:54:45;;;;;;;42.30;15.45;;;;;;;;;;5043737;28;20030;-52
2021/11/15 10:57:31;;;;;;;49.05;16.67;;;;;;;;;;5049203;28;20057;-57
2021/11/15 11:00:11;;;;;;;45.22;16.30;;;;;;;;;;5049073;28;20036;-55
2021/11/15 11:02:39;;;;;;;42.88;15.30;;;;;;;;;;5049439;28;20042;-53
2021/11/15 11:05:09;;;;;;;43.50;15.35;;;;;;;;;;5053911;28;20499;-53
2021/11/15 11:07:36;;;;;;;38.28;15.30;;;;;;;;;;5044055;28;20029;-56
2021/11/15 11:10:04;;;;;;;40.20;14.95;;;;;;;;;;5046965;28;20025;-51
2021/11/15 11:12:34;;;;;;;44.92;16.02;;;;;;;;;;5052549;28;20047;-56
2021/11/15 11:15:19;;;;;;;38.83;13.68;;;;;;;;;;5049683;28;20029;-55
2021/11/15 11:18:02;;;;;;;39.00;15.05;;;;;;;;;;5056001;28;20030;-53
2021/11/15 11:20:35;;;;;;;42.83;15.00;;;;;;;;;;5047879;28;20381;-54
2021/11/15 11:26:09;;;;;;;43.60;13.88;;;;;;;;;;5053867;28;20101;-52
2021/11/15 11:28:37;;;;;;;41.38;14.50;;;;;;;;;;5048182;28;20048;-54
2021/11/15 11:31:04;;;;;;;40.95;14.48;;;;;;;;;;5053082;28;20029;-56
2021/11/15 11:33:31;;;;;;;39.08;14.63;;;;;;;;;;5051559;28;20044;-54
2021/11/15 11:35:58;;;;;;;32.70;13.90;;;;;;;;;;5051610;28;20029;-55
2021/11/15 11:38:24;;;;;;;38.63;13.38;;;;;;;;;;5050053;28;20029;-56
2021/11/15 11:40:50;;;;;;;38.88;14.88;;;;;;;;;;5051251;28;20031;-56
2021/11/15 11:43:17;;;;;;;39.10;14.80;;;;;;;;;;5048922;28;20029;-55
2021/11/15 11:45:43;;;;;;;35.38;15.45;;;;;;;;;;5047056;28;20521;-55
2021/11/15 11:48:10;;;;;;;35.70;14.30;;;;;;;;;;5048106;28;20140;-52
2021/11/15 11:50:37;;;;;;;32.97;12.85;;;;;;;;;;5051227;28;20035;-53
2021/11/15 11:53:07;;;;;;;38.90;15.02;;;;;;;;;;5052019;28;20059;-52
2021/11/15 11:55:34;;;;;;;39.75;13.85;;;;;;;;;;5052772;28;20108;-52
2021/11/15 11:58:22;;;;;;;36.38;14.30;;;;;;;;;;5047708;28;20550;-52
2021/11/15 12:00:49;;;;;;;30.70;13.10;;;;;;;;;;5043660;28;20025;-52
2021/11/15 12:03:15;;;;;;;34.85;13.95;;;;;;;;;;5050323;28;20185;-54
2021/11/15 12:05:43;;;;;;;34.17;14.07;;;;;;;;;;5048676;28;20052;-53
2021/11/15 12:08:09;;;;;;;34.78;12.40;;;;;;;;;;5046239;28;20541;-51
2021/11/15 12:10:49;;;;;;;36.20;13.45;;;;;;;;;;5044725;28;20404;-52
2021/11/15 12:13:17;;;;;;;31.10;12.27;;;;;;;;;;5049404;28;20094;-52
2021/11/15 12:15:52;;;;;;;36.58;14.43;;;;;;;;;;5048509;28;20028;-53
2021/11/15 12:18:23;;;;;;;32.15;13.65;;;;;;;;;;5050832;28;20135;-53
2021/11/15 12:21:04;;;;;;;31.63;12.60;;;;;;;;;;5049011;28;20327;-55
2021/11/15 12:23:36;;;;;;;29.88;12.68;;;;;;;;;;5051214;28;20094;-55
2021/11/15 12:26:04;;;;;;;37.80;12.95;;;;;;;;;;5043958;28;20088;-55
2021/11/15 12:28:34;;;;;;;35.20;13.18;;;;;;;;;;5040361;28;20084;-52
2021/11/15 12:31:01;;;;;;;28.55;11.85;;;;;;;;;;5052978;28;20461;-53
2021/11/15 12:33:28;;;;;;;32.83;12.95;;;;;;;;;;5050006;28;20037;-52
2021/11/15 12:36:03;;;;;;;25.38;11.18;;;;;;;;;;5048712;28;20033;-54
2021/11/15 12:38:30;;;;;;;25.00;11.57;;;;;;;;;;5043908;28;20084;-53
2021/11/15 12:40:56;;;;;;;37.33;12.68;;;;;;;;;;5050110;28;20057;-54
2021/11/15 12:43:22;;;;;;;32.45;12.90;;;;;;;;;;5052211;28;20027;-53
2021/11/15 12:46:07;;;;;;;30.58;12.70;;;;;;;;;;5049172;28;20071;-56
2021/11/15 12:48:41;;;;;;;25.13;10.98;;;;;;;;;;5036343;28;20109;-55
2021/11/15 12:51:10;;;;;;;32.65;11.93;;;;;;;;;;5038198;28;20144;-52
2021/11/15 12:53:39;;;;;;;27.58;11.93;;;;;;;;;;5044249;28;20025;-52
2021/11/15 12:56:06;;;;;;;33.13;12.32;;;;;;;;;;5043596;28;20025;-53
2021/11/15 12:58:32;;;;;;;28.20;12.30;;;;;;;;;;5051305;28;20029;-56
2021/11/15 13:00:58;;;;;;;29.75;12.40;;;;;;;;;;5051647;28;20021;-53
2021/11/15 13:03:25;;;;;;;28.15;11.38;;;;;;;;;;5049436;28;20075;-57
2021/11/15 13:05:51;;;;;;;34.03;12.07;;;;;;;;;;5050203;28;20021;-55
2021/11/15 13:08:17;;;;;;;35.20;12.68;;;;;;;;;;5047866;28;20040;-57
2021/11/15 13:10:45;;;;;;;23.45;10.98;;;;;;;;;;5049205;28;20049;-54
2021/11/15 13:13:14;;;;;;;26.77;11.65;;;;;;;;;;5043072;28;20022;-53
2021/11/15 13:15:40;;;;;;;32.35;12.20;;;;;;;;;;5050820;28;20113;-58
2021/11/15 13:18:06;;;;;;;24.80;10.07;;;;;;;;;;5044696;28;20119;-56
2021/11/15 13:20:32;;;;;;;29.55;14.35;;;;;;;;;;5046436;28;20049;-55
2021/11/15 13:22:58;;;;;;;31.30;10.95;;;;;;;;;;5045131;28;20022;-57
2021/11/15 13:25:27;;;;;;;35.13;19.65;;;;;;;;;;5055042;28;20033;-54
2021/11/15 13:27:53;;;;;;;26.67;13.80;;;;;;;;;;5050636;28;20029;-53
2021/11/15 13:30:20;;;;;;;27.85;11.43;;;;;;;;;;5053745;28;20716;-54
2021/11/15 13:32:50;;;;;;;31.63;12.57;;;;;;;;;;5053605;28;20037;-53
2021/11/15 13:35:17;;;;;;;34.30;13.05;;;;;;;;;;5049530;28;20079;-56
2021/11/15 13:37:43;;;;;;;28.08;11.75;;;;;;;;;;5044122;28;21099;-54
2021/11/15 13:40:09;;;;;;;30.90;12.15;;;;;;;;;;5045978;28;20520;-56
2021/11/15 13:42:35;;;;;;;33.38;12.45;;;;;;;;;;5047697;28;20082;-53
2021/11/15 13:45:01;;;;;;;31.77;12.80;;;;;;;;;;5049611;28;20154;-56
2021/11/15 13:47:27;;;;;;;33.85;12.52;;;;;;;;;;5045338;28;20037;-55
2021/11/15 13:49:54;;;;;;;33.72;12.48;;;;;;;;;;5048762;28;20040;-54
2021/11/15 13:52:20;;;;;;;31.95;11.63;;;;;;;;;;5044952;28;20086;-55
2021/11/15 13:54:48;;;;;;;26.23;13.35;;;;;;;;;;5041713;28;20033;-53
2021/11/15 13:57:15;;;;;;;41.63;18.80;;;;;;;;;;5048111;28;20032;-53
2021/11/15 13:59:41;;;;;;;37.08;15.95;;;;;;;;;;5043780;28;20021;-55
2021/11/15 14:02:08;;;;;;;27.55;11.50;;;;;;;;;;5052583;28;20017;-57
2021/11/15 14:04:34;;;;;;;33.88;13.15;;;;;;;;;;5045163;28;20059;-56
2021/11/15 14:07:00;;;;;;;31.83;11.90;;;;;;;;;;5052427;28;20409;-56
2021/11/15 14:09:26;;;;;;;29.33;11.65;;;;;;;;;;5044052;28;20168;-53
2021/11/15 14:11:52;;;;;;;29.98;13.43;;;;;;;;;;5048272;28;20037;-53
2021/11/15 14:14:19;;;;;;;33.53;15.15;;;;;;;;;;5054165;28;20114;-54
2021/11/15 14:16:45;;;;;;;25.83;12.50;;;;;;;;;;5056502;28;20037;-53
2021/11/15 14:19:11;;;;;;;28.92;12.15;;;;;;;;;;5040139;28;20175;-52